createdAt,value
2022-09-09T00:00:00.293Z,14.94
2022-09-09T00:15:01.532Z,15.06
2022-09-09T00:30:02.812Z,14.67
2022-09-09T00:45:07.086Z,14.61
2022-09-09T01:00:05.358Z,14.39
2022-09-09T01:15:03.608Z,14.33
2022-09-09T01:30:01.806Z,14.44
2022-09-09T01:45:06.016Z,14.28
2022-09-09T02:00:07.259Z,14.17
2022-09-09T02:15:07.005Z,14.11
2022-09-09T02:30:05.328Z,13.94
2022-09-09T02:45:06.632Z,13.89
2022-09-09T03:00:00.548Z,13.83
2022-09-09T03:15:57.038Z,13.67
2022-09-09T03:30:01.559Z,13.67
2022-09-09T03:45:01.047Z,13.61
2022-09-09T04:00:06.549Z,13.56
2022-09-09T04:15:03.530Z,13.61
2022-09-09T04:30:08.525Z,13.61
2022-09-09T04:45:05.138Z,13.67
2022-09-09T05:00:04.899Z,13.67
2022-09-09T05:15:06.104Z,13.72
2022-09-09T05:30:01.302Z,13.72
2022-09-09T05:45:05.572Z,13.94
2022-09-09T06:00:06.895Z,14.06
2022-09-09T06:15:06.711Z,14.22
2022-09-09T06:30:05.009Z,14.44
2022-09-09T06:45:01.779Z,14.83
2022-09-09T06:59:59.962Z,14.89
2022-09-09T07:15:04.246Z,14.94
2022-09-09T07:30:08.512Z,14.94
2022-09-09T07:45:00.698Z,15
2022-09-09T08:00:00.499Z,15.06
2022-09-09T08:15:04.874Z,15
2022-09-09T08:30:05.952Z,15.11
2022-09-09T08:45:05.789Z,15.06
2022-09-09T09:00:08.599Z,15.22
2022-09-09T09:15:00.820Z,15.33
2022-09-09T09:30:23.829Z,15.44
2022-09-09T09:45:03.191Z,15.56
2022-09-09T10:00:04.477Z,15.56
2022-09-09T10:15:02.695Z,15.61
2022-09-09T10:30:06.896Z,15.83
2022-09-09T10:45:02.111Z,15.72
2022-09-09T11:00:00.390Z,15.61
2022-09-09T11:15:04.426Z,15.83
2022-09-09T11:30:02.398Z,15.83
2022-09-09T11:45:03.326Z,15.78
2022-09-09T12:00:01.452Z,15.83
2022-09-09T12:15:04.213Z,15.94
2022-09-09T12:30:02.361Z,16.28
2022-09-09T12:45:02.052Z,16.67
2022-09-09T13:00:48.064Z,16.89
2022-09-09T13:15:00.130Z,17.06
2022-09-09T13:30:05.220Z,17.11
2022-09-09T13:45:06.275Z,17.06
2022-09-09T14:00:06.631Z,16.94
2022-09-09T14:15:07.287Z,16.89
2022-09-09T14:30:07.078Z,16.72
2022-09-09T14:45:03.788Z,16.61
2022-09-09T15:00:08.048Z,16.44
2022-09-09T15:15:03.331Z,16.33
2022-09-09T15:30:07.559Z,16.11
2022-09-09T15:45:04.408Z,15.94
2022-09-09T16:00:05.346Z,15.72
2022-09-09T16:15:02.521Z,15.67
2022-09-09T16:30:00.822Z,15.56
2022-09-09T16:45:05.567Z,15.56
2022-09-09T16:59:59.889Z,15.44
2022-09-09T17:15:00.906Z,15.28
2022-09-09T17:30:03.613Z,15.28
2022-09-09T17:45:03.398Z,15.17
2022-09-09T18:00:06.198Z,15.11
2022-09-09T18:15:05.831Z,15.06
2022-09-09T18:30:04.081Z,14.94
2022-09-09T18:45:05.354Z,15
2022-09-09T19:00:03.623Z,14.94
2022-09-09T19:15:00.434Z,14.94
2022-09-09T19:30:06.361Z,15
2022-09-09T19:45:01.619Z,15
2022-09-09T20:00:01.398Z,14.94
2022-09-09T20:15:01.246Z,14.89
2022-09-09T20:30:02.771Z,14.83
2022-09-09T20:45:06.832Z,14.78
2022-09-09T21:00:04.959Z,14.67
2022-09-09T21:16:08.012Z,14.61
2022-09-09T21:30:10.574Z,14.61
2022-09-09T21:45:07.327Z,14.5
2022-09-09T22:00:02.488Z,14.39
2022-09-09T22:15:02.251Z,14.28
2022-09-09T22:30:03.421Z,14.22
2022-09-09T22:45:03.174Z,14.22
2022-09-09T23:00:01.532Z,14.11
2022-09-09T23:15:04.288Z,14.06
2022-09-09T23:30:02.565Z,13.94
2022-09-09T23:45:02.352Z,13.83
